Time;durP1;ratioP1;P1;durP2;ratioP2;P2;SDS_P1;SDS_P2;PMS_P1;PMS_P2;Temp;Humidity;BMP_temperature;BMP_pressure;BME280_temperature;BME280_humidity;BME280_pressure;Samples;Min_cycle;Max_cycle;Signal;HPM_P1;HPM_P2
2024/03/29 00:03:24;;;;;;;0.67;0.20;;;;;;;17.48;51.30;98922.78;10366804;28;20052;-55
2024/03/29 00:08:24;;;;;;;1.63;0.70;;;;;;;17.49;51.17;98903.69;10367054;28;20276;-56
2024/03/29 00:13:25;;;;;;;1.03;0.30;;;;;;;17.44;52.79;98898.56;10366647;28;20521;-56
2024/03/29 00:18:25;;;;;;;1.80;0.52;;;;;;;17.45;50.93;98894.75;10366749;28;20287;-53
2024/03/29 00:23:26;;;;;;;1.60;0.30;;;;;;;17.46;51.60;98911.63;10366152;28;20030;-54
2024/03/29 00:28:26;;;;;;;0.60;0.30;;;;;;;17.41;51.80;98896.53;10366464;28;20791;-55
2024/03/29 00:33:26;;;;;;;1.00;0.30;;;;;;;17.45;52.06;98918.09;10365755;28;20044;-56
2024/03/29 00:38:27;;;;;;;0.73;0.43;;;;;;;17.47;51.14;98905.94;10365976;28;20291;-57
2024/03/29 00:43:27;;;;;;;2.13;0.90;;;;;;;17.42;52.41;98916.88;10365578;28;20307;-56
2024/03/29 00:48:27;;;;;;;0.47;0.27;;;;;;;17.46;51.76;98915.06;10365765;28;20283;-55
2024/03/29 00:53:28;;;;;;;1.63;0.40;;;;;;;17.47;51.48;98942.66;10365185;28;20053;-55
2024/03/29 00:58:29;;;;;;;0.40;0.20;;;;;;;17.40;52.36;98931.69;10365657;28;20289;-56
2024/03/29 01:03:31;;;;;;;1.60;0.50;;;;;;;17.46;51.90;98933.06;10363529;28;20297;-55
2024/03/29 01:08:31;;;;;;;1.17;0.47;;;;;;;17.44;52.01;98946.78;10365168;28;20022;-56
2024/03/29 01:13:31;;;;;;;2.07;0.30;;;;;;;17.40;52.77;98943.19;10364410;28;20071;-55
2024/03/29 01:18:32;;;;;;;0.83;0.30;;;;;;;17.45;52.13;98959.06;10365042;28;20291;-56
2024/03/29 01:23:33;;;;;;;0.38;0.20;;;;;;;17.46;52.14;98944.56;10364244;28;20476;-56
2024/03/29 01:28:33;;;;;;;0.40;0.23;;;;;;;17.40;52.00;98942.41;10364903;28;20101;-56
2024/03/29 01:33:37;;;;;;;1.33;0.25;;;;;;;17.45;51.65;98928.81;10364359;28;20269;-56
2024/03/29 01:38:38;;;;;;;0.85;0.40;;;;;;;17.49;52.09;98927.03;10364714;28;20040;-55
2024/03/29 01:43:38;;;;;;;0.97;0.47;;;;;;;17.42;51.84;98916.09;10364149;28;20034;-54
2024/03/29 01:48:38;;;;;;;1.00;0.27;;;;;;;17.44;51.34;98914.63;10364681;28;20300;-56
2024/03/29 01:53:39;;;;;;;0.28;0.20;;;;;;;17.43;52.24;98891.63;10362396;28;20273;-54
2024/03/29 01:58:39;;;;;;;0.98;0.30;;;;;;;17.41;51.62;98871.66;10368032;28;20080;-55
2024/03/29 02:03:40;;;;;;;0.73;0.30;;;;;;;17.45;51.29;98859.16;10370197;28;20022;-56
2024/03/29 02:08:40;;;;;;;0.88;0.20;;;;;;;17.46;52.25;98858.81;10371546;28;20026;-55
2024/03/29 02:13:41;;;;;;;1.77;0.60;;;;;;;17.46;51.03;98882.94;10371324;28;20049;-55
2024/03/29 02:18:41;;;;;;;2.03;0.47;;;;;;;17.42;52.00;98874.00;10370184;28;20030;-56
2024/03/29 02:23:44;;;;;;;0.97;0.50;;;;;;;17.47;51.97;98881.81;10370709;28;20037;-54
2024/03/29 02:28:44;;;;;;;0.70;0.40;;;;;;;17.46;51.12;98900.91;10370903;28;20265;-56
2024/03/29 02:33:45;;;;;;;1.90;0.30;;;;;;;17.45;52.21;98905.47;10370913;28;20029;-56
2024/03/29 02:38:45;;;;;;;0.83;0.30;;;;;;;17.44;51.86;98913.84;10369184;28;20056;-56
2024/03/29 02:43:45;;;;;;;1.03;0.30;;;;;;;17.40;52.60;98920.97;10368925;28;20296;-56
2024/03/29 02:48:46;;;;;;;0.40;0.30;;;;;;;17.43;52.06;98907.72;10370189;28;20782;-56
2024/03/29 02:53:46;;;;;;;0.50;0.23;;;;;;;17.46;51.65;98906.25;10369516;28;20277;-55
2024/03/29 02:58:47;;;;;;;0.52;0.20;;;;;;;17.44;51.65;98925.34;10369944;28;20680;-55
2024/03/29 03:03:47;;;;;;;1.42;0.30;;;;;;;17.47;51.66;98908.59;10369203;28;20022;-55
2024/03/29 03:14:06;;;;;;;0.55;0.30;;;;;;;17.52;51.61;98912.97;10369124;28;20042;-56
2024/03/29 03:19:06;;;;;;;0.53;0.27;;;;;;;17.47;51.02;98922.00;10368974;28;20081;-56
2024/03/29 03:24:07;;;;;;;0.27;0.10;;;;;;;17.45;51.42;98929.59;10368519;28;20029;-55
2024/03/29 03:29:09;;;;;;;0.60;0.30;;;;;;;17.48;51.21;98938.84;10355396;28;20652;-55
2024/03/29 03:34:09;;;;;;;0.93;0.43;;;;;;;17.47;51.28;98951.47;10368111;28;20022;-54
2024/03/29 03:39:10;;;;;;;1.60;0.27;;;;;;;17.47;50.70;98924.69;10368747;28;20026;-54
2024/03/29 03:44:10;;;;;;;1.27;0.30;;;;;;;17.46;50.90;98936.50;10367520;28;20302;-56
2024/03/29 03:49:10;;;;;;;0.97;0.40;;;;;;;17.50;51.35;98940.09;10367871;28;20311;-55
2024/03/29 03:54:11;;;;;;;0.85;0.25;;;;;;;17.49;50.86;98935.84;10366846;28;20296;-56
2024/03/29 03:59:11;;;;;;;1.87;0.40;;;;;;;17.49;50.24;98945.78;10367708;28;20112;-56
2024/03/29 04:04:11;;;;;;;0.23;0.20;;;;;;;17.45;52.16;98939.53;10366959;28;20312;-55
2024/03/29 04:09:15;;;;;;;0.10;0.10;;;;;;;17.45;51.57;98942.22;10367465;28;20641;-56
2024/03/29 04:14:16;;;;;;;1.15;0.38;;;;;;;17.47;50.91;98951.47;10366466;28;20664;-56
2024/03/29 04:19:16;;;;;;;0.47;0.27;;;;;;;17.47;50.33;98946.13;10366077;28;20037;-54
2024/03/29 04:24:16;;;;;;;0.90;0.40;;;;;;;17.51;50.93;98957.72;10366183;28;20285;-56
2024/03/29 04:29:17;;;;;;;1.70;0.40;;;;;;;17.50;51.00;98941.97;10366857;28;20281;-55
2024/03/29 04:34:17;;;;;;;0.43;0.20;;;;;;;17.54;50.52;98948.28;10366246;28;20268;-56
2024/03/29 04:39:17;;;;;;;1.05;0.40;;;;;;;17.51;50.73;98970.34;10366096;28;20288;-56
2024/03/29 04:44:25;;;;;;;1.15;0.30;;;;;;;17.50;50.83;98963.41;10365552;28;20036;-56
2024/03/29 04:49:33;;;;;;;0.65;0.40;;;;;;;17.53;50.39;98968.16;10363165;28;20021;-55
2024/03/29 04:54:34;;;;;;;0.47;0.30;;;;;;;17.52;50.83;98956.63;10364563;28;20017;-56
2024/03/29 04:59:34;;;;;;;0.73;0.30;;;;;;;17.49;51.11;98973.34;10364823;28;20470;-56
2024/03/29 05:04:34;;;;;;;1.02;0.20;;;;;;;17.45;50.90;98971.69;10363829;28;20034;-57
2024/03/29 05:09:35;;;;;;;0.70;0.40;;;;;;;17.51;50.85;98968.44;10364837;28;20025;-57
2024/03/29 05:14:35;;;;;;;0.30;0.15;;;;;;;17.49;50.10;98967.22;10362602;28;20289;-55
2024/03/29 05:19:35;;;;;;;0.50;0.20;;;;;;;17.53;51.38;98992.25;10364231;28;20025;-56
2024/03/29 05:24:36;;;;;;;1.40;0.20;;;;;;;17.53;51.21;98981.53;10361267;28;20034;-56
2024/03/29 05:29:36;;;;;;;1.10;0.50;;;;;;;17.54;51.53;98985.78;10356903;28;20104;-55
2024/03/29 05:34:36;;;;;;;0.47;0.20;;;;;;;17.56;50.66;98988.13;10370478;28;20338;-57
2024/03/29 05:39:37;;;;;;;0.87;0.30;;;;;;;17.53;50.59;99006.44;10375694;28;20290;-57
2024/03/29 05:44:37;;;;;;;0.32;0.10;;;;;;;17.57;50.71;99003.09;10375762;28;20284;-57
2024/03/29 05:49:37;;;;;;;0.23;0.10;;;;;;;17.58;50.51;99001.97;10375990;28;20033;-57
2024/03/29 05:54:38;;;;;;;0.20;0.17;;;;;;;17.57;50.95;99003.09;10375035;28;20273;-57
2024/03/29 05:59:38;;;;;;;0.57;0.20;;;;;;;17.57;51.94;99011.13;10375317;28;20280;-56
2024/03/29 06:04:39;;;;;;;2.95;0.38;;;;;;;17.58;51.65;99010.81;10373565;28;20289;-57
2024/03/29 06:09:39;;;;;;;1.45;0.30;;;;;;;17.60;51.20;99018.50;10375182;28;20021;-59
2024/03/29 06:20:01;;;;;;;6.88;0.38;;;;;;;17.66;53.59;99022.56;10375060;28;20308;-48
2024/03/29 06:25:05;;;;;;;1.75;0.30;;;;;;;17.67;53.36;99024.13;10373781;28;20025;-50
2024/03/29 06:30:08;;;;;;;12.65;1.65;;;;;;;17.61;52.73;99012.03;10373773;28;20034;-51
2024/03/29 06:35:08;;;;;;;8.15;0.80;;;;;;;17.62;53.45;99013.59;10373144;28;20030;-53
2024/03/29 06:40:09;;;;;;;8.45;0.63;;;;;;;17.52;53.56;99017.47;10371994;28;20029;-53
2024/03/29 06:45:10;;;;;;;4.82;0.80;;;;;;;17.45;53.30;99020.69;10371186;28;20080;-49
2024/03/29 06:50:10;;;;;;;4.60;0.95;;;;;;;17.42;53.54;99020.56;10368642;28;20444;-50
2024/03/29 06:55:12;;;;;;;10.23;1.93;;;;;;;17.41;52.97;99019.00;10372682;28;20481;-56
2024/03/29 07:00:13;;;;;;;10.13;1.30;;;;;;;17.43;53.48;99028.28;10371256;28;20296;-53
2024/03/29 07:05:13;;;;;;;7.18;1.10;;;;;;;17.36;53.47;98995.88;10372734;28;20022;-51
2024/03/29 07:10:13;;;;;;;12.00;0.87;;;;;;;17.34;53.85;98998.09;10371075;28;20483;-55
2024/03/29 07:15:14;;;;;;;9.23;1.17;;;;;;;17.28;55.34;99025.38;10370913;28;20339;-53
2024/03/29 07:20:14;;;;;;;11.93;1.73;;;;;;;17.30;55.45;99039.28;10370588;28;20339;-52
2024/03/29 07:25:14;;;;;;;24.50;3.13;;;;;;;17.14;54.24;99049.75;10371538;28;20285;-50
2024/03/29 07:30:18;;;;;;;15.57;3.38;;;;;;;17.24;54.70;99052.06;10366214;28;20049;-53
2024/03/29 07:35:18;;;;;;;16.58;4.32;;;;;;;17.24;54.80;99046.69;10371512;28;20107;-52
2024/03/29 07:40:18;;;;;;;16.20;3.40;;;;;;;17.33;56.59;99054.69;10366248;28;20072;-53
2024/03/29 07:45:22;;;;;;;28.20;3.83;;;;;;;17.33;55.43;99066.19;10370330;28;20691;-54
2024/03/29 07:50:24;;;;;;;29.88;3.33;;;;;;;17.33;56.99;99076.09;10368247;28;20771;-51
2024/03/29 07:55:24;;;;;;;21.83;3.55;;;;;;;17.31;57.27;99072.97;10367784;28;20025;-54
2024/03/29 08:00:25;;;;;;;25.47;4.57;;;;;;;17.33;57.30;99071.53;10367102;28;20029;-53
2024/03/29 08:05:27;;;;;;;23.40;3.75;;;;;;;17.35;57.20;99074.66;10367017;28;20701;-53
2024/03/29 08:10:27;;;;;;;27.52;4.15;;;;;;;17.37;58.20;99061.72;10364711;28;20061;-50
2024/03/29 08:15:28;;;;;;;10.87;2.03;;;;;;;17.34;56.83;99067.75;10368222;28;20069;-53
2024/03/29 08:20:29;;;;;;;12.32;2.92;;;;;;;17.28;57.11;99063.69;10367304;28;20310;-51
2024/03/29 08:25:30;;;;;;;27.25;4.55;;;;;;;17.19;56.54;99081.72;10366955;28;20133;-51
2024/03/29 08:30:34;;;;;;;23.90;4.97;;;;;;;17.15;57.09;99067.41;10365208;28;20056;-50
2024/03/29 08:35:35;;;;;;;15.05;3.00;;;;;;;17.16;57.42;99055.56;10367139;28;20504;-53
2024/03/29 08:40:37;;;;;;;12.52;3.25;;;;;;;17.08;57.14;99053.75;10367219;28;20037;-54
2024/03/29 08:45:40;;;;;;;16.20;3.35;;;;;;;17.08;56.84;99061.78;10368130;28;20030;-50
2024/03/29 08:50:41;;;;;;;15.38;2.65;;;;;;;17.06;56.64;99064.00;10367801;28;20044;-54
2024/03/29 08:55:41;;;;;;;17.60;3.53;;;;;;;17.04;55.54;99058.97;10368003;28;20045;-53
2024/03/29 09:00:41;;;;;;;14.02;3.25;;;;;;;17.04;55.73;99066.22;10367342;28;20033;-51
2024/03/29 09:05:42;;;;;;;10.63;2.03;;;;;;;17.11;56.46;99067.28;10367141;28;20105;-54
2024/03/29 09:10:42;;;;;;;16.97;2.60;;;;;;;17.06;55.31;99072.06;10366279;28;20339;-52
2024/03/29 09:15:42;;;;;;;20.40;3.90;;;;;;;17.19;56.33;99092.44;10365607;28;20296;-54
2024/03/29 09:20:44;;;;;;;21.10;3.15;;;;;;;17.27;56.90;99085.44;10367313;28;20286;-51
2024/03/29 09:25:45;;;;;;;13.25;3.05;;;;;;;17.34;56.52;99072.31;10368142;28;20026;-55
2024/03/29 09:30:45;;;;;;;31.83;4.80;;;;;;;17.36;57.00;99065.53;10362682;28;20037;-50
2024/03/29 09:35:45;;;;;;;22.05;4.10;;;;;;;17.25;57.79;99088.44;10366151;28;20288;-49
2024/03/29 09:40:46;;;;;;;30.07;3.63;;;;;;;17.19;57.43;99079.84;10364236;28;20497;-54
2024/03/29 09:45:47;;;;;;;31.17;4.63;;;;;;;17.19;58.03;99076.38;10360978;28;20289;-54
2024/03/29 09:50:48;;;;;;;26.60;3.13;;;;;;;17.23;57.79;99085.31;10355923;28;20508;-52
2024/03/29 09:55:49;;;;;;;21.13;2.97;;;;;;;17.26;59.06;99092.69;10364173;28;20022;-53
2024/03/29 10:00:50;;;;;;;16.45;3.58;;;;;;;17.34;58.23;99089.19;10379539;28;20030;-55
2024/03/29 10:05:52;;;;;;;19.33;3.78;;;;;;;17.57;59.60;99108.41;10361466;28;20476;-55
2024/03/29 10:10:54;;;;;;;10.02;2.83;;;;;;;17.50;58.25;99105.44;10361882;28;20484;-55
2024/03/29 10:15:55;;;;;;;19.13;2.88;;;;;;;17.38;57.40;99100.00;10362868;28;20045;-56
2024/03/29 10:21:08;;;;;;;13.13;3.35;;;;;;;17.43;59.03;99095.25;10368769;28;20065;-57
2024/03/29 10:26:08;;;;;;;26.42;3.80;;;;;;;17.29;58.83;99089.38;10369530;28;20034;-55
2024/03/29 10:31:09;;;;;;;30.42;3.05;;;;;;;17.24;59.01;99111.00;10371676;28;20025;-55
2024/03/29 10:36:12;;;;;;;7.47;2.08;;;;;;;17.35;58.04;99098.78;10370936;28;20068;-55
2024/03/29 10:41:12;;;;;;;11.23;2.50;;;;;;;17.43;58.46;99099.84;10370604;28;20037;-55
2024/03/29 10:46:14;;;;;;;23.67;4.63;;;;;;;17.36;58.37;99099.56;10369350;28;20026;-55
2024/03/29 10:51:14;;;;;;;23.80;2.90;;;;;;;17.39;58.59;99096.22;10424904;28;20481;-54
2024/03/29 10:56:15;;;;;;;13.07;2.93;;;;;;;17.44;58.03;99093.38;10426352;28;20047;-55
2024/03/29 11:01:16;;;;;;;24.58;3.00;;;;;;;17.49;58.22;99101.97;10405433;28;20327;-57
2024/03/29 11:06:18;;;;;;;16.80;2.80;;;;;;;17.59;59.03;99118.78;10411727;28;20038;-54
2024/03/29 11:11:24;;;;;;;20.77;3.20;;;;;;;17.61;59.13;99111.19;10394249;28;20052;-55
2024/03/29 11:16:25;;;;;;;21.38;3.90;;;;;;;17.53;58.69;99132.38;10410956;28;20136;-56
2024/03/29 11:21:28;;;;;;;30.23;3.95;;;;;;;17.51;59.34;99125.75;10393780;28;20026;-54
2024/03/29 11:26:29;;;;;;;33.72;4.18;;;;;;;17.57;58.78;99124.47;10409971;28;20118;-55
2024/03/29 11:31:32;;;;;;;38.28;5.10;;;;;;;17.60;59.99;99101.59;10409819;28;20037;-57
2024/03/29 11:36:32;;;;;;;42.30;6.50;;;;;;;17.53;59.38;99113.63;10411342;28;20032;-55
2024/03/29 11:41:33;;;;;;;28.93;4.37;;;;;;;17.51;59.15;99131.13;10407650;28;20036;-55
2024/03/29 11:46:35;;;;;;;28.70;4.75;;;;;;;17.41;58.52;99120.81;10411008;28;20311;-55
2024/03/29 11:51:35;;;;;;;23.17;4.50;;;;;;;17.34;59.10;99126.69;10390953;28;20120;-55
2024/03/29 11:56:37;;;;;;;18.25;3.42;;;;;;;17.30;58.67;99146.41;10408824;28;20461;-55
2024/03/29 12:01:39;;;;;;;18.25;3.30;;;;;;;17.27;58.58;99144.38;10409749;28;20029;-55
2024/03/29 12:06:40;;;;;;;10.77;2.42;;;;;;;17.23;58.95;99142.34;10408427;28;20025;-54
2024/03/29 12:11:45;;;;;;;12.25;2.90;;;;;;;17.22;59.31;99148.03;10422442;28;20037;-55
2024/03/29 12:16:45;;;;;;;13.50;2.80;;;;;;;17.19;58.90;99148.69;10410181;28;20021;-54
2024/03/29 12:21:46;;;;;;;9.45;2.47;;;;;;;17.16;58.83;99160.03;10407279;28;20025;-55
2024/03/29 12:26:49;;;;;;;12.70;2.87;;;;;;;17.14;58.06;99164.91;10407107;28;20113;-54
2024/03/29 12:31:58;;;;;;;10.60;2.40;;;;;;;17.13;58.10;99160.69;10417133;28;20680;-54
2024/03/29 12:36:58;;;;;;;32.37;6.07;;;;;;;17.20;59.07;99177.81;10409014;28;20024;-54
2024/03/29 12:42:00;;;;;;;18.90;2.92;;;;;;;17.24;59.02;99173.38;10408093;28;20786;-55
2024/03/29 12:47:01;;;;;;;11.25;3.05;;;;;;;17.23;57.37;99171.03;10390219;28;20107;-55
2024/03/29 12:52:01;;;;;;;12.43;1.77;;;;;;;17.23;58.81;99168.34;10406155;28;20036;-53
2024/03/29 12:57:02;;;;;;;14.35;3.13;;;;;;;17.23;58.74;99176.38;10408711;28;20029;-55
2024/03/29 13:02:06;;;;;;;6.25;1.98;;;;;;;17.23;58.71;99174.50;10408160;28;20104;-53
2024/03/29 13:07:06;;;;;;;11.68;1.92;;;;;;;17.28;57.10;99167.38;10406709;28;20116;-54
2024/03/29 13:12:07;;;;;;;12.23;2.50;;;;;;;17.30;57.78;99163.28;10393221;28;20128;-53
2024/03/29 13:17:07;;;;;;;5.80;1.25;;;;;;;17.31;56.63;99169.41;10406708;28;20295;-54
2024/03/29 13:22:08;;;;;;;7.25;2.03;;;;;;;17.33;57.11;99173.34;10407667;28;20133;-53
2024/03/29 13:27:08;;;;;;;26.57;3.53;;;;;;;17.41;57.50;99169.84;10407600;28;20025;-55
2024/03/29 13:32:08;;;;;;;10.50;1.97;;;;;;;17.40;57.94;99180.84;10406572;28;20296;-55
2024/03/29 13:37:09;;;;;;;11.47;1.70;;;;;;;17.37;58.25;99170.78;10413994;28;20029;-56
2024/03/29 13:42:09;;;;;;;10.57;1.77;;;;;;;17.43;57.21;99182.91;10421102;28;20357;-56
2024/03/29 13:47:15;;;;;;;11.40;2.20;;;;;;;17.49;56.84;99190.41;10421249;28;20033;-56
2024/03/29 13:52:16;;;;;;;18.45;2.88;;;;;;;17.56;57.09;99186.44;10407764;28;20617;-56
2024/03/29 13:57:16;;;;;;;10.10;2.50;;;;;;;17.49;57.12;99185.03;10415528;28;20029;-55
2024/03/29 14:02:18;;;;;;;8.05;1.83;;;;;;;17.46;56.47;99187.59;10416214;28;20291;-56
2024/03/29 14:07:18;;;;;;;4.22;1.13;;;;;;;17.40;56.62;99208.41;10415452;28;20099;-57
2024/03/29 14:12:21;;;;;;;8.07;1.37;;;;;;;17.41;56.44;99209.22;10428806;28;20071;-56
2024/03/29 14:17:21;;;;;;;41.03;3.20;;;;;;;17.45;57.03;99207.47;10414798;28;20268;-58
2024/03/29 14:22:23;;;;;;;11.23;1.88;;;;;;;17.51;56.19;99220.34;10394093;28;20025;-56
2024/03/29 14:27:24;;;;;;;18.30;3.15;;;;;;;17.47;56.87;99210.59;10414401;28;20029;-54
2024/03/29 14:32:25;;;;;;;17.35;3.45;;;;;;;17.47;57.22;99197.22;10423904;28;20029;-55
2024/03/29 14:37:26;;;;;;;16.17;2.20;;;;;;;17.46;57.64;99196.41;10395006;28;20025;-54
2024/03/29 14:42:26;;;;;;;12.82;2.40;;;;;;;17.54;57.68;99198.28;10395690;28;20296;-53
2024/03/29 14:47:27;;;;;;;18.50;2.60;;;;;;;17.54;57.13;99189.44;10412838;28;20025;-55
2024/03/29 14:52:27;;;;;;;8.17;1.63;;;;;;;17.60;57.55;99195.38;10409387;28;20310;-53
2024/03/29 14:57:27;;;;;;;10.07;2.40;;;;;;;17.64;58.01;99193.63;10413131;28;20719;-56
2024/03/29 15:02:28;;;;;;;16.90;2.40;;;;;;;17.71;56.89;99213.47;10410998;28;20334;-55
2024/03/29 15:07:28;;;;;;;11.50;1.67;;;;;;;17.82;57.79;99200.47;10416906;28;21604;-53
2024/03/29 15:12:28;;;;;;;8.70;1.97;;;;;;;17.94;57.31;99200.53;10411765;28;20079;-53
2024/03/29 15:17:29;;;;;;;10.13;1.95;;;;;;;18.09;58.28;99201.84;10404162;28;20303;-57
2024/03/29 15:22:29;;;;;;;9.70;2.30;;;;;;;18.22;58.40;99198.09;10371005;28;20385;-55
2024/03/29 15:32:48;;;;;;;20.10;3.93;;;;;;;18.29;57.24;99197.56;10369472;28;20308;-56
2024/03/29 15:37:48;;;;;;;11.70;2.10;;;;;;;18.04;57.68;99196.69;10370957;28;20377;-55
2024/03/29 15:42:49;;;;;;;31.25;6.05;;;;;;;17.91;57.98;99195.06;10369983;28;20524;-55
2024/03/29 15:47:49;;;;;;;32.73;5.17;;;;;;;17.95;58.43;99198.63;10369370;28;20104;-58
2024/03/29 15:52:49;;;;;;;26.77;5.53;;;;;;;17.99;58.52;99196.84;10369580;28;20077;-56
2024/03/29 15:57:50;;;;;;;40.87;7.30;;;;;;;17.87;59.26;99215.56;10360396;28;20277;-55
2024/03/29 16:02:50;;;;;;;40.00;6.77;;;;;;;17.78;59.80;99226.38;10370933;28;20285;-56
2024/03/29 16:07:50;;;;;;;24.83;3.97;;;;;;;17.74;58.88;99226.22;10374471;28;20022;-55
2024/03/29 16:12:51;;;;;;;19.47;4.73;;;;;;;17.69;58.87;99234.47;10394913;28;20303;-56
2024/03/29 16:17:51;;;;;;;30.63;4.50;;;;;;;17.78;58.33;99255.88;10410019;28;20032;-57
2024/03/29 16:22:51;;;;;;;17.40;4.28;;;;;;;17.75;57.96;99243.09;10436770;28;20022;-57
2024/03/29 16:27:51;;;;;;;20.00;4.00;;;;;;;17.63;59.27;99232.25;10389945;28;20044;-57
2024/03/29 16:32:52;;;;;;;20.07;3.57;;;;;;;17.63;59.05;99248.34;10412670;28;20271;-56
2024/03/29 16:37:52;;;;;;;32.92;13.57;;;;;;;17.69;59.56;99255.13;10408374;28;20275;-56
2024/03/29 16:42:53;;;;;;;35.08;12.40;;;;;;;17.73;59.30;99243.41;10406188;28;20021;-55
2024/03/29 16:47:53;;;;;;;27.27;9.30;;;;;;;18.03;62.08;99254.91;10407209;28;20028;-55
2024/03/29 16:52:53;;;;;;;20.17;7.37;;;;;;;18.35;60.47;99261.44;10407492;28;20032;-56
2024/03/29 16:57:54;;;;;;;17.97;6.53;;;;;;;18.38;61.27;99254.63;10405455;28;20287;-58
2024/03/29 17:02:55;;;;;;;24.20;6.50;;;;;;;18.42;60.74;99256.31;10405032;28;20272;-56
2024/03/29 17:07:56;;;;;;;18.92;6.05;;;;;;;18.38;59.42;99249.25;10409912;28;20366;-54
2024/03/29 17:12:56;;;;;;;27.52;7.13;;;;;;;18.44;60.19;99253.28;10387123;28;20073;-57
2024/03/29 17:17:56;;;;;;;24.15;7.20;;;;;;;18.32;60.35;99264.75;10358251;28;20053;-55
2024/03/29 17:22:57;;;;;;;26.80;6.70;;;;;;;18.26;59.73;99252.66;10359391;28;20026;-55
2024/03/29 17:27:57;;;;;;;17.77;5.40;;;;;;;18.28;60.20;99257.69;10372670;28;20264;-57
2024/03/29 17:32:57;;;;;;;19.33;6.17;;;;;;;18.21;59.61;99263.59;10395247;28;20029;-55
2024/03/29 17:37:57;;;;;;;21.13;6.67;;;;;;;18.19;60.05;99271.19;10389604;28;20328;-57
2024/03/29 17:42:58;;;;;;;14.50;4.80;;;;;;;18.20;59.56;99256.66;10362482;28;20284;-57
2024/03/29 17:47:58;;;;;;;21.47;5.37;;;;;;;18.31;59.92;99265.88;10381745;28;20041;-57
2024/03/29 17:52:58;;;;;;;24.97;5.00;;;;;;;18.34;58.92;99270.56;10378654;28;20648;-56
2024/03/29 17:57:59;;;;;;;10.23;4.07;;;;;;;18.28;59.30;99290.69;10377118;28;20300;-56
2024/03/29 18:02:59;;;;;;;15.35;3.47;;;;;;;18.18;58.57;99303.69;10380023;28;20276;-56
2024/03/29 18:07:59;;;;;;;8.85;3.38;;;;;;;18.10;59.53;99303.44;10362780;28;20033;-57
2024/03/29 18:13:00;;;;;;;12.40;3.90;;;;;;;18.11;59.32;99312.25;10411477;28;20059;-57
2024/03/29 18:18:00;;;;;;;12.93;4.27;;;;;;;18.13;59.83;99325.38;10461031;28;20290;-57
2024/03/29 18:23:01;;;;;;;9.20;3.27;;;;;;;18.06;58.29;99315.16;10462096;28;20275;-57
2024/03/29 18:28:03;;;;;;;11.02;3.08;;;;;;;18.01;59.63;99316.13;10461494;28;20695;-57
2024/03/29 18:33:03;;;;;;;10.00;2.78;;;;;;;17.96;58.67;99324.34;10461354;28;20032;-55
2024/03/29 18:38:03;;;;;;;9.25;4.18;;;;;;;17.91;59.29;99324.56;10459933;28;20389;-55
2024/03/29 18:43:04;;;;;;;8.75;3.05;;;;;;;17.92;59.01;99339.53;10453799;28;20033;-55
2024/03/29 18:48:06;;;;;;;8.23;3.37;;;;;;;17.90;59.06;99346.31;10452202;28;20025;-54
2024/03/29 18:53:06;;;;;;;8.55;3.10;;;;;;;17.92;59.36;99349.47;10452840;28;20366;-55
2024/03/29 18:58:06;;;;;;;11.47;2.97;;;;;;;17.91;58.78;99350.59;10451795;28;20119;-53
2024/03/29 19:03:07;;;;;;;11.63;3.60;;;;;;;17.90;58.17;99351.69;10452011;28;20279;-56
2024/03/29 19:08:07;;;;;;;8.00;2.93;;;;;;;17.89;58.17;99361.63;10451341;28;20794;-55
2024/03/29 19:13:08;;;;;;;7.45;2.45;;;;;;;17.87;58.31;99358.47;10451578;28;20311;-55
2024/03/29 19:18:09;;;;;;;5.40;2.65;;;;;;;17.94;57.98;99353.41;10450451;28;20052;-55
2024/03/29 19:23:09;;;;;;;6.05;3.05;;;;;;;18.01;57.49;99363.63;10450484;28;20068;-56
2024/03/29 19:28:09;;;;;;;8.57;2.80;;;;;;;18.04;57.86;99353.03;10449869;28;20111;-52
2024/03/29 19:33:10;;;;;;;4.93;2.47;;;;;;;18.02;58.51;99357.16;10450077;28;20382;-55
2024/03/29 19:38:12;;;;;;;6.80;2.00;;;;;;;17.97;59.00;99366.16;10446416;28;20359;-54
2024/03/29 19:43:12;;;;;;;8.65;3.33;;;;;;;18.01;57.76;99356.38;10449760;28;20275;-54
2024/03/29 19:48:12;;;;;;;4.10;1.90;;;;;;;17.97;59.27;99368.03;10449407;28;20025;-55
2024/03/29 19:53:13;;;;;;;5.33;2.20;;;;;;;17.92;58.89;99385.13;10449587;28;20279;-53
2024/03/29 19:58:13;;;;;;;8.33;2.57;;;;;;;17.98;57.85;99391.84;10448489;28;20291;-53
2024/03/29 20:03:14;;;;;;;4.53;2.10;;;;;;;17.95;57.76;99405.13;10447765;28;20694;-56
2024/03/29 20:08:15;;;;;;;5.82;2.13;;;;;;;17.92;57.95;99411.94;10448722;28;20025;-57
2024/03/29 20:13:15;;;;;;;4.53;1.70;;;;;;;17.89;58.60;99409.13;10431133;28;20041;-55
2024/03/29 20:18:16;;;;;;;4.78;1.75;;;;;;;17.87;57.78;99397.91;10430560;28;20029;-54
2024/03/29 20:23:17;;;;;;;3.83;2.08;;;;;;;17.83;58.67;99395.88;10447989;28;20036;-53
2024/03/29 20:28:18;;;;;;;4.43;2.47;;;;;;;17.82;57.72;99406.94;10447729;28;20032;-53
2024/03/29 20:33:18;;;;;;;3.00;1.83;;;;;;;17.79;57.92;99399.53;10447623;28;20102;-53
2024/03/29 20:38:19;;;;;;;8.55;1.98;;;;;;;17.75;58.65;99394.00;10448700;28;20163;-55
2024/03/29 20:43:20;;;;;;;5.03;1.57;;;;;;;17.75;57.69;99399.38;10448760;28;20032;-54
2024/03/29 20:48:20;;;;;;;3.83;1.70;;;;;;;17.71;57.91;99403.81;10447632;28;20468;-54
2024/03/29 20:53:20;;;;;;;4.45;1.70;;;;;;;17.70;57.91;99414.84;10447790;28;20054;-54
2024/03/29 20:58:21;;;;;;;3.43;1.70;;;;;;;17.68;58.42;99427.78;10429507;28;20032;-55
2024/03/29 21:08:40;;;;;;;6.37;2.33;;;;;;;17.63;57.13;99439.44;10447527;28;20472;-55
2024/03/29 21:13:41;;;;;;;3.90;1.47;;;;;;;17.63;58.52;99441.31;10446885;28;20041;-54
2024/03/29 21:18:41;;;;;;;6.07;1.80;;;;;;;17.61;57.60;99443.53;10446896;28;20275;-55
2024/03/29 21:23:42;;;;;;;2.40;1.60;;;;;;;17.59;57.04;99462.63;10447632;28;20028;-53
2024/03/29 21:28:42;;;;;;;3.15;1.40;;;;;;;17.58;58.17;99471.00;10446858;28;20282;-53
2024/03/29 21:33:43;;;;;;;3.33;1.83;;;;;;;17.57;57.77;99474.78;10447270;28;20569;-53
2024/03/29 21:38:43;;;;;;;4.20;1.57;;;;;;;17.55;58.00;99477.78;10446501;28;20357;-53
2024/03/29 21:43:43;;;;;;;3.85;2.15;;;;;;;17.53;58.50;99485.34;10446625;28;20896;-51
2024/03/29 21:48:44;;;;;;;2.87;1.50;;;;;;;17.51;57.77;99493.69;10445971;28;20388;-55
2024/03/29 21:53:44;;;;;;;2.90;1.20;;;;;;;17.51;57.83;99491.00;10446676;28;20291;-54
2024/03/29 21:58:44;;;;;;;3.60;1.10;;;;;;;17.50;58.26;99491.31;10446003;28;20784;-54
2024/03/29 22:03:45;;;;;;;2.42;1.10;;;;;;;17.47;58.71;99506.16;10445693;28;20317;-54
2024/03/29 22:08:45;;;;;;;3.43;2.23;;;;;;;17.47;57.70;99511.53;10445696;28;20025;-53
2024/03/29 22:13:45;;;;;;;3.13;1.30;;;;;;;17.45;58.62;99513.72;10446524;28;20295;-55
2024/03/29 22:18:45;;;;;;;2.60;1.30;;;;;;;17.45;58.74;99515.63;10453793;28;20675;-55
2024/03/29 22:23:46;;;;;;;2.27;1.53;;;;;;;17.46;58.07;99530.59;10453534;28;20086;-55
2024/03/29 22:28:46;;;;;;;4.27;1.43;;;;;;;17.48;57.45;99539.09;10453116;28;20332;-53
2024/03/29 22:33:49;;;;;;;2.40;1.20;;;;;;;17.49;57.60;99538.78;10453145;28;20276;-53
2024/03/29 22:38:49;;;;;;;2.85;0.95;;;;;;;17.48;56.94;99533.75;10452530;28;20284;-53
2024/03/29 22:43:50;;;;;;;2.60;1.20;;;;;;;17.46;57.64;99536.75;10452670;28;20420;-54
2024/03/29 22:48:50;;;;;;;3.03;1.43;;;;;;;17.49;57.54;99552.19;10434331;28;20271;-54
2024/03/29 22:53:51;;;;;;;1.73;0.97;;;;;;;17.50;57.74;99545.72;10452527;28;20737;-54
2024/03/29 22:58:51;;;;;;;2.50;1.33;;;;;;;17.50;56.55;99559.13;10452029;28;20275;-54
2024/03/29 23:03:51;;;;;;;3.07;1.60;;;;;;;17.51;56.92;99552.66;10451956;28;20051;-54
2024/03/29 23:08:51;;;;;;;2.43;1.10;;;;;;;17.53;57.02;99550.47;10451316;28;20275;-53
2024/03/29 23:13:52;;;;;;;2.30;1.03;;;;;;;17.51;56.74;99555.34;10451650;28;20624;-54
2024/03/29 23:18:53;;;;;;;2.45;1.10;;;;;;;17.51;56.05;99555.34;10450974;28;20291;-54
2024/03/29 23:23:54;;;;;;;2.97;0.70;;;;;;;17.50;56.42;99553.75;10451289;28;20021;-54
2024/03/29 23:28:54;;;;;;;2.50;0.80;;;;;;;17.48;57.14;99557.88;10450288;28;20116;-53
2024/03/29 23:33:54;;;;;;;1.50;1.00;;;;;;;17.51;56.72;99546.50;10451238;28;20529;-54